createdAt,value
2017-08-04T00:00:16.957Z,72.50
2017-08-04T00:02:44.334Z,72.50
2017-08-04T00:05:11.194Z,72.50
2017-08-04T00:07:38.450Z,72.40
2017-08-04T00:10:06.070Z,72.40
2017-08-04T00:12:33.313Z,72.40
2017-08-04T00:15:00.173Z,72.40
2017-08-04T00:17:27.066Z,72.30
2017-08-04T00:19:54.682Z,72.20
2017-08-04T00:22:21.973Z,72.20
2017-08-04T00:24:49.228Z,72.10
2017-08-04T00:27:16.489Z,72.20
2017-08-04T00:29:43.350Z,72.20
2017-08-04T00:32:10.593Z,72.10
2017-08-04T00:34:37.460Z,72.10
2017-08-04T00:37:04.723Z,72.00
2017-08-04T00:39:31.585Z,72.00
2017-08-04T00:41:58.432Z,71.90
2017-08-04T00:44:25.706Z,71.90
2017-08-04T00:46:52.565Z,71.90
2017-08-04T00:49:19.805Z,71.80
2017-08-04T00:54:15.213Z,71.90
2017-08-04T00:56:42.057Z,71.80
2017-08-04T00:59:09.678Z,71.70
2017-08-04T01:01:37.666Z,71.80
2017-08-04T01:04:04.515Z,71.80
2017-08-04T01:06:31.414Z,71.70
2017-08-04T01:08:58.665Z,71.60
2017-08-04T01:11:25.514Z,71.60
2017-08-04T01:13:52.766Z,71.60
2017-08-04T01:16:20.388Z,71.60
2017-08-04T01:18:47.233Z,71.60
2017-08-04T01:21:14.338Z,71.60
2017-08-04T01:23:41.646Z,71.50
2017-08-04T01:26:08.502Z,71.50
2017-08-04T01:28:35.346Z,71.50
2017-08-04T01:31:02.194Z,71.40
2017-08-04T01:33:29.486Z,71.40
2017-08-04T01:35:58.266Z,71.40
2017-08-04T01:38:25.118Z,71.30
2017-08-04T01:40:52.616Z,71.30
2017-08-04T01:43:19.470Z,71.30
2017-08-04T01:45:46.355Z,71.30
2017-08-04T01:48:13.610Z,71.20
2017-08-04T01:50:40.853Z,71.20
2017-08-04T01:53:07.703Z,71.10
2017-08-04T01:55:34.566Z,71.10
2017-08-04T02:00:40.977Z,70.90
2017-08-04T02:03:07.827Z,71.00
2017-08-04T02:05:34.677Z,71.00
2017-08-04T02:08:01.558Z,70.90
2017-08-04T02:10:28.809Z,70.90
2017-08-04T02:12:55.702Z,71.00
2017-08-04T02:15:23.313Z,70.90
2017-08-04T02:17:50.158Z,70.90
2017-08-04T02:20:17.403Z,70.90
2017-08-04T02:22:44.261Z,70.90
2017-08-04T02:25:11.114Z,70.90
2017-08-04T02:27:37.958Z,70.80
2017-08-04T02:30:04.810Z,70.80
2017-08-04T02:32:31.674Z,70.90
2017-08-04T02:34:59.030Z,70.80
2017-08-04T02:37:26.277Z,70.80
2017-08-04T02:39:53.578Z,70.60
2017-08-04T02:42:20.441Z,70.70
2017-08-04T02:44:47.292Z,70.80
2017-08-04T02:47:14.137Z,70.70
2017-08-04T02:49:41.751Z,70.70
2017-08-04T02:52:09.026Z,70.70
2017-08-04T02:54:35.896Z,70.70
2017-08-04T02:57:02.743Z,70.70
2017-08-04T02:59:29.985Z,70.70
2017-08-04T03:01:56.874Z,70.70
2017-08-04T03:04:24.125Z,70.60
2017-08-04T03:06:52.152Z,70.60
2017-08-04T03:09:18.997Z,70.50
2017-08-04T03:11:45.842Z,70.60
2017-08-04T03:14:12.698Z,70.60
2017-08-04T03:16:39.543Z,70.70
2017-08-04T03:19:06.425Z,70.70
2017-08-04T03:21:33.676Z,70.60
2017-08-04T03:24:00.926Z,70.50
2017-08-04T03:26:27.780Z,70.60
2017-08-04T03:28:55.049Z,70.50
2017-08-04T03:31:21.892Z,70.50
2017-08-04T03:33:48.742Z,70.50
2017-08-04T03:36:15.587Z,70.40
2017-08-04T03:38:42.432Z,70.50
2017-08-04T03:41:09.278Z,70.40
2017-08-04T03:43:36.132Z,70.40
2017-08-04T03:46:02.978Z,70.40
2017-08-04T03:48:29.822Z,70.50
2017-08-04T03:50:56.705Z,70.50
2017-08-04T03:53:23.582Z,70.40
2017-08-04T03:55:50.822Z,70.40
2017-08-04T04:00:57.619Z,70.30
2017-08-04T04:03:24.860Z,70.30
2017-08-04T04:05:51.710Z,70.40
2017-08-04T04:08:18.582Z,70.40
2017-08-04T04:10:45.821Z,70.40
2017-08-04T04:13:13.453Z,70.30
2017-08-04T04:15:40.309Z,70.30
2017-08-04T04:18:07.168Z,70.30
2017-08-04T04:20:34.013Z,70.30
2017-08-04T04:23:01.259Z,70.20
2017-08-04T04:25:28.109Z,70.30
2017-08-04T04:30:33.445Z,70.20
2017-08-04T04:33:00.686Z,70.20
2017-08-04T04:35:27.566Z,70.20
2017-08-04T04:37:54.414Z,70.10
2017-08-04T04:40:21.293Z,70.20
2017-08-04T04:42:48.157Z,70.20
2017-08-04T04:45:15.773Z,70.20
2017-08-04T04:47:42.623Z,70.20
2017-08-04T04:50:09.893Z,70.20
2017-08-04T04:52:37.146Z,70.10
2017-08-04T04:55:04.391Z,70.10
2017-08-04T04:57:31.663Z,70.10
2017-08-04T04:59:58.514Z,70.00
2017-08-04T05:02:25.394Z,70.10
2017-08-04T05:04:52.254Z,70.00
2017-08-04T05:07:19.952Z,70.10
2017-08-04T05:09:47.203Z,70.20
2017-08-04T05:12:14.105Z,70.00
2017-08-04T05:14:40.954Z,70.00
2017-08-04T05:17:07.802Z,70.10
2017-08-04T05:19:35.070Z,70.10
2017-08-04T05:22:02.349Z,70.00
2017-08-04T05:24:29.629Z,70.00
2017-08-04T05:26:57.245Z,70.00
2017-08-04T05:29:24.089Z,70.00
2017-08-04T05:31:50.937Z,70.00
2017-08-04T05:34:17.780Z,70.00
2017-08-04T05:36:44.654Z,70.00
2017-08-04T05:39:11.497Z,70.00
2017-08-04T05:41:38.381Z,70.00
2017-08-04T05:44:05.695Z,69.90
2017-08-04T05:46:33.338Z,69.90
2017-08-04T05:49:00.182Z,69.90
2017-08-04T05:51:27.029Z,69.90
2017-08-04T05:53:53.877Z,69.90
2017-08-04T05:56:20.720Z,69.90
2017-08-04T05:58:47.962Z,69.80
2017-08-04T06:01:14.828Z,70.00
2017-08-04T06:03:42.086Z,70.00
2017-08-04T06:06:09.712Z,69.90
2017-08-04T06:08:36.600Z,69.90
2017-08-04T06:11:03.852Z,69.90
2017-08-04T06:13:30.740Z,69.90
2017-08-04T06:15:57.602Z,69.90
2017-08-04T06:18:24.862Z,69.90
2017-08-04T06:20:51.705Z,70.00
2017-08-04T06:23:18.550Z,69.90
2017-08-04T06:25:45.402Z,70.10
2017-08-04T06:28:12.251Z,70.00
2017-08-04T06:30:39.098Z,70.10
2017-08-04T06:33:05.942Z,70.10
2017-08-04T06:35:32.823Z,70.20
2017-08-04T06:37:59.672Z,70.00
2017-08-04T06:40:26.532Z,70.10
2017-08-04T06:42:53.378Z,70.10
2017-08-04T06:45:20.226Z,70.20
2017-08-04T06:47:47.475Z,70.10
2017-08-04T06:50:14.331Z,70.20
2017-08-04T06:52:41.949Z,70.20
2017-08-04T06:55:09.565Z,70.20
2017-08-04T06:57:37.650Z,70.10
2017-08-04T07:00:04.493Z,70.10
2017-08-04T07:02:31.426Z,70.20
2017-08-04T07:04:58.281Z,70.20
2017-08-04T07:07:25.530Z,70.20
2017-08-04T07:09:52.386Z,70.20
2017-08-04T07:12:19.261Z,70.20
2017-08-04T07:14:46.113Z,70.20
2017-08-04T07:17:13.390Z,70.20
2017-08-04T07:19:40.241Z,70.30
2017-08-04T07:22:07.118Z,70.30
2017-08-04T07:24:34.354Z,70.30
2017-08-04T07:27:01.608Z,70.20
2017-08-04T07:29:29.265Z,70.20
2017-08-04T07:31:56.113Z,70.30
2017-08-04T07:34:22.986Z,70.30
2017-08-04T07:36:49.846Z,70.30
2017-08-04T07:39:17.141Z,70.30
2017-08-04T07:41:43.997Z,70.30
2017-08-04T07:44:10.854Z,70.30
2017-08-04T07:46:38.743Z,70.30
2017-08-04T07:49:05.629Z,70.20
2017-08-04T07:51:32.902Z,70.20
2017-08-04T07:53:59.749Z,70.20
2017-08-04T07:56:26.626Z,70.20
2017-08-04T07:58:53.486Z,70.30
2017-08-04T08:01:20.378Z,70.30
2017-08-04T08:03:47.620Z,70.30
2017-08-04T08:06:14.470Z,70.20
2017-08-04T08:08:41.318Z,70.20
2017-08-04T08:11:08.573Z,70.20
2017-08-04T08:13:35.446Z,70.10
2017-08-04T08:16:02.305Z,70.20
2017-08-04T08:18:29.194Z,70.20
2017-08-04T08:20:57.177Z,70.20
2017-08-04T08:23:24.838Z,70.10
2017-08-04T08:25:53.209Z,70.00
2017-08-04T08:30:59.050Z,70.10
2017-08-04T08:33:25.897Z,70.00
2017-08-04T08:35:52.777Z,70.10
2017-08-04T08:38:21.037Z,70.10
2017-08-04T08:40:47.918Z,70.10
2017-08-04T08:43:14.774Z,70.20
2017-08-04T08:45:41.650Z,70.20
2017-08-04T08:48:09.264Z,70.20
2017-08-04T08:50:36.146Z,70.10
2017-08-04T08:53:03.393Z,70.10
2017-08-04T08:55:30.283Z,70.10
2017-08-04T08:57:57.529Z,70.20
2017-08-04T09:00:24.374Z,70.20
2017-08-04T09:02:51.257Z,70.20
2017-08-04T09:05:18.105Z,70.20
2017-08-04T09:07:44.984Z,70.20
2017-08-04T09:10:11.833Z,70.30
2017-08-04T09:12:39.108Z,70.30
2017-08-04T09:15:05.962Z,70.30
2017-08-04T09:17:32.857Z,70.30
2017-08-04T09:20:00.101Z,70.30
2017-08-04T09:22:26.946Z,70.30
2017-08-04T09:24:54.185Z,70.40
2017-08-04T09:27:21.429Z,70.30
2017-08-04T09:29:48.698Z,70.30
2017-08-04T09:32:15.550Z,70.20
2017-08-04T09:34:42.428Z,70.20
2017-08-04T09:37:09.274Z,70.30
2017-08-04T09:39:36.157Z,70.20
2017-08-04T09:42:03.417Z,70.20
2017-08-04T09:44:32.687Z,70.30
2017-08-04T09:46:59.535Z,70.30
2017-08-04T09:49:26.377Z,70.30
2017-08-04T09:51:53.253Z,70.30
2017-08-04T09:54:20.493Z,70.20
2017-08-04T09:56:48.145Z,70.30
2017-08-04T09:59:15.017Z,70.20
2017-08-04T10:01:42.659Z,70.40
2017-08-04T10:04:09.514Z,70.30
2017-08-04T10:06:36.785Z,70.30
2017-08-04T10:09:03.630Z,70.40
2017-08-04T10:11:30.483Z,70.30
2017-08-04T10:13:57.337Z,70.30
2017-08-04T10:16:24.578Z,70.20
2017-08-04T10:18:51.454Z,70.40
2017-08-04T10:21:19.868Z,70.30
2017-08-04T10:23:46.748Z,70.40
2017-08-04T10:26:14.013Z,70.30
2017-08-04T10:28:46.686Z,70.30
2017-08-04T10:31:13.546Z,70.40
2017-08-04T10:33:40.393Z,70.40
2017-08-04T10:36:07.257Z,70.40
2017-08-04T10:38:34.107Z,70.40
2017-08-04T10:41:00.994Z,70.40
2017-08-04T10:43:28.238Z,70.40
2017-08-04T10:45:55.505Z,70.50
2017-08-04T10:48:22.752Z,70.50
2017-08-04T10:50:50.046Z,70.30
2017-08-04T10:53:17.296Z,70.30
2017-08-04T10:55:44.146Z,70.40
2017-08-04T11:00:50.254Z,70.40
2017-08-04T11:03:17.097Z,70.50
2017-08-04T11:05:43.953Z,70.50
2017-08-04T11:08:10.830Z,70.50
2017-08-04T11:10:38.079Z,70.30
2017-08-04T11:13:05.354Z,70.20
2017-08-04T11:15:32.229Z,70.20
2017-08-04T11:17:59.113Z,70.40
2017-08-04T11:20:25.958Z,70.30
2017-08-04T11:22:52.802Z,70.20
2017-08-04T11:25:19.650Z,70.30
2017-08-04T11:30:25.543Z,70.40
2017-08-04T11:32:52.406Z,70.50
2017-08-04T11:35:19.677Z,70.40
2017-08-04T11:37:46.527Z,70.50
2017-08-04T11:40:13.418Z,70.50
2017-08-04T11:42:40.268Z,70.50
2017-08-04T11:45:08.622Z,70.50
2017-08-04T11:47:35.469Z,70.50
2017-08-04T11:50:02.318Z,70.60
2017-08-04T11:52:30.361Z,70.60
2017-08-04T11:54:57.226Z,70.60
2017-08-04T11:57:24.105Z,70.60
2017-08-04T11:59:50.958Z,70.60
2017-08-04T12:02:17.838Z,70.60
2017-08-04T12:04:44.685Z,70.60
2017-08-04T12:07:11.586Z,70.30
2017-08-04T12:09:38.865Z,70.30
2017-08-04T12:12:05.714Z,70.00
2017-08-04T12:14:32.568Z,70.00
2017-08-04T12:16:59.418Z,70.10
2017-08-04T12:19:26.266Z,70.10
2017-08-04T12:21:53.507Z,70.10
2017-08-04T12:24:20.385Z,70.00
2017-08-04T12:26:47.241Z,70.00
2017-08-04T12:29:14.122Z,70.00
2017-08-04T12:31:41.360Z,70.10
2017-08-04T12:34:08.609Z,70.00
2017-08-04T12:36:35.465Z,70.00
2017-08-04T12:39:02.309Z,70.00
2017-08-04T12:41:29.162Z,70.00
2017-08-04T12:43:56.013Z,70.10
2017-08-04T12:46:23.616Z,70.20
2017-08-04T12:48:50.465Z,70.20
2017-08-04T12:51:17.341Z,70.30
2017-08-04T12:53:44.596Z,70.20
2017-08-04T12:56:11.484Z,70.10
2017-08-04T12:58:38.729Z,70.10
2017-08-04T13:01:05.577Z,70.10
2017-08-04T13:03:32.433Z,70.10
2017-08-04T13:05:59.287Z,70.10
2017-08-04T13:08:26.540Z,70.10
2017-08-04T13:10:53.383Z,70.10
2017-08-04T13:13:20.658Z,70.30
2017-08-04T13:15:47.901Z,70.30
2017-08-04T13:18:15.170Z,70.30
2017-08-04T13:20:42.013Z,70.30
2017-08-04T13:23:08.858Z,70.40
2017-08-04T13:25:35.706Z,70.50
2017-08-04T13:28:02.550Z,70.50
2017-08-04T13:30:29.430Z,70.50
2017-08-04T13:32:57.045Z,70.50
2017-08-04T13:35:24.316Z,70.30
2017-08-04T13:37:51.166Z,70.30
2017-08-04T13:40:18.457Z,70.50
2017-08-04T13:42:45.302Z,70.60
2017-08-04T13:45:12.914Z,70.60
2017-08-04T13:47:39.762Z,70.50
2017-08-04T13:50:07.010Z,70.60
2017-08-04T13:52:34.688Z,70.60
2017-08-04T13:55:01.572Z,70.60
2017-08-04T13:57:28.469Z,70.60
2017-08-04T13:59:55.722Z,70.60
2017-08-04T14:02:22.601Z,70.60
2017-08-04T14:04:49.845Z,70.50
2017-08-04T14:07:16.717Z,70.70
2017-08-04T14:09:43.573Z,70.80
2017-08-04T14:12:10.425Z,70.80
2017-08-04T14:14:37.669Z,70.60
2017-08-04T14:17:04.531Z,70.60
2017-08-04T14:19:31.806Z,70.60
2017-08-04T14:21:58.659Z,70.70
2017-08-04T14:24:25.633Z,70.70
2017-08-04T14:26:53.290Z,70.70
2017-08-04T14:29:20.945Z,70.70
2017-08-04T14:31:47.789Z,70.70
2017-08-04T14:34:14.641Z,70.70
2017-08-04T14:36:41.496Z,70.50
2017-08-04T14:39:08.342Z,70.50
2017-08-04T14:41:35.192Z,70.40
2017-08-04T14:44:02.446Z,70.30
2017-08-04T14:46:29.322Z,70.30
2017-08-04T14:48:56.961Z,70.30
2017-08-04T14:51:23.841Z,70.30
2017-08-04T14:53:51.089Z,70.30
2017-08-04T14:56:17.950Z,70.40
2017-08-04T14:58:45.204Z,70.40
2017-08-04T15:01:12.053Z,70.50
2017-08-04T15:03:38.901Z,70.60
2017-08-04T15:06:05.961Z,70.70
2017-08-04T15:08:32.838Z,70.80
2017-08-04T15:10:59.685Z,70.90
2017-08-04T15:13:26.568Z,71.00
2017-08-04T15:15:53.413Z,70.90
2017-08-04T15:18:20.270Z,70.80
2017-08-04T15:20:47.117Z,70.70
2017-08-04T15:23:13.965Z,70.70
2017-08-04T15:25:41.205Z,70.80
2017-08-04T15:28:08.049Z,70.80
2017-08-04T15:30:36.145Z,70.80
2017-08-04T15:33:03.762Z,70.80
2017-08-04T15:35:30.647Z,70.80
2017-08-04T15:37:57.904Z,70.60
2017-08-04T15:40:24.751Z,70.30
2017-08-04T15:42:52.003Z,70.30
2017-08-04T15:45:23.041Z,70.40
2017-08-04T15:47:49.892Z,70.40
2017-08-04T15:50:17.141Z,70.50
2017-08-04T15:55:13.448Z,70.60
2017-08-04T15:57:40.337Z,70.60
2017-08-04T16:00:07.181Z,70.50
2017-08-04T16:02:34.418Z,70.30
2017-08-04T16:05:01.269Z,70.30
2017-08-04T16:07:28.531Z,70.30
2017-08-04T16:09:55.373Z,70.30
2017-08-04T16:12:22.614Z,70.40
2017-08-04T16:14:49.465Z,70.50
2017-08-04T16:17:16.313Z,70.40
2017-08-04T16:19:44.014Z,70.40
2017-08-04T16:22:10.862Z,70.40
2017-08-04T16:24:37.710Z,70.50
2017-08-04T16:27:04.575Z,70.50
2017-08-04T16:29:31.430Z,70.50
2017-08-04T16:31:58.284Z,70.40
2017-08-04T16:34:25.533Z,70.40
2017-08-04T16:36:52.430Z,70.40
2017-08-04T16:39:19.277Z,70.40
2017-08-04T16:41:46.126Z,70.40
2017-08-04T16:44:12.997Z,70.40
2017-08-04T16:46:40.238Z,70.40
2017-08-04T16:49:07.081Z,70.40
2017-08-04T16:51:33.925Z,70.40
2017-08-04T16:54:01.543Z,70.50
2017-08-04T16:56:28.402Z,70.50
2017-08-04T16:58:55.295Z,70.60
2017-08-04T17:01:22.143Z,70.70
2017-08-04T17:03:49.393Z,70.70
2017-08-04T17:06:16.244Z,70.60
2017-08-04T17:08:43.488Z,70.60
2017-08-04T17:11:10.332Z,70.60
2017-08-04T17:13:37.183Z,70.50
2017-08-04T17:16:04.047Z,70.50
2017-08-04T17:18:31.577Z,70.50
2017-08-04T17:20:58.470Z,70.50
2017-08-04T17:23:25.710Z,70.40
2017-08-04T17:25:52.586Z,70.50
2017-08-04T17:28:19.838Z,70.60
2017-08-04T17:30:46.685Z,70.60
2017-08-04T17:33:13.530Z,70.60
2017-08-04T17:35:40.778Z,70.50
2017-08-04T17:38:07.662Z,70.50
2017-08-04T17:40:34.521Z,70.50
2017-08-04T17:43:01.804Z,70.50
2017-08-04T17:45:28.649Z,70.50
2017-08-04T17:47:55.901Z,70.50
2017-08-04T17:50:23.142Z,70.50
2017-08-04T17:52:50.447Z,70.60
2017-08-04T17:55:17.299Z,70.60
2017-08-04T17:57:44.537Z,70.60
2017-08-04T18:00:11.412Z,70.70
2017-08-04T18:02:38.271Z,70.80
2017-08-04T18:05:05.166Z,70.80
2017-08-04T18:07:32.406Z,70.80
2017-08-04T18:09:59.266Z,70.80
2017-08-04T18:12:26.513Z,70.80
2017-08-04T18:14:53.356Z,70.90
2017-08-04T18:17:20.234Z,71.00
2017-08-04T18:19:47.089Z,71.00
2017-08-04T18:22:13.975Z,71.00
2017-08-04T18:24:41.229Z,71.00
2017-08-04T18:27:08.110Z,71.00
2017-08-04T18:29:34.959Z,70.90
2017-08-04T18:32:01.818Z,71.00
2017-08-04T18:34:28.682Z,71.00
2017-08-04T18:36:56.181Z,71.00
2017-08-04T18:39:23.454Z,71.00
2017-08-04T18:41:50.300Z,71.10
2017-08-04T18:44:17.181Z,71.10
2017-08-04T18:46:44.030Z,71.20
2017-08-04T18:49:10.880Z,71.20
2017-08-04T18:51:37.729Z,71.20
2017-08-04T18:54:04.569Z,71.20
2017-08-04T18:56:31.445Z,71.10
2017-08-04T19:01:26.825Z,71.20
2017-08-04T19:03:53.682Z,71.10
2017-08-04T19:06:20.564Z,71.20
2017-08-04T19:08:47.410Z,71.20
2017-08-04T19:11:15.319Z,71.20
2017-08-04T19:13:42.175Z,71.20
2017-08-04T19:16:09.025Z,71.10
2017-08-04T19:18:35.904Z,71.20
2017-08-04T19:21:02.777Z,71.20
2017-08-04T19:23:30.044Z,71.20
2017-08-04T19:25:56.884Z,71.10
2017-08-04T19:31:02.830Z,71.10
2017-08-04T19:33:29.701Z,71.20
2017-08-04T19:35:56.545Z,71.10
2017-08-04T19:38:23.389Z,71.00
2017-08-04T19:40:50.226Z,71.00
2017-08-04T19:43:17.466Z,71.00
2017-08-04T19:45:44.727Z,71.00
2017-08-04T19:48:11.570Z,71.00
2017-08-04T19:50:38.441Z,71.00
2017-08-04T19:53:05.305Z,71.00
2017-08-04T19:55:32.198Z,71.00
2017-08-04T19:57:59.436Z,71.00
2017-08-04T20:00:26.272Z,71.00
2017-08-04T20:02:53.512Z,70.90
2017-08-04T20:05:20.352Z,70.90
2017-08-04T20:07:47.237Z,70.90
2017-08-04T20:10:14.081Z,70.90
2017-08-04T20:12:40.949Z,70.80
2017-08-04T20:15:07.793Z,70.80
2017-08-04T20:17:34.676Z,70.70
2017-08-04T20:20:01.521Z,70.70
2017-08-04T20:22:28.415Z,70.60
2017-08-04T20:24:55.259Z,70.60
2017-08-04T20:27:22.103Z,70.50
2017-08-04T20:29:49.372Z,70.50
2017-08-04T20:32:16.865Z,70.50
2017-08-04T20:34:43.732Z,70.40
2017-08-04T20:37:10.569Z,70.40
2017-08-04T20:39:37.828Z,70.40
2017-08-04T20:42:04.665Z,70.40
2017-08-04T20:44:31.533Z,70.40
2017-08-04T20:46:58.376Z,70.30
2017-08-04T20:49:25.617Z,70.30
2017-08-04T20:51:52.460Z,70.30
2017-08-04T20:54:19.701Z,70.30
2017-08-04T20:56:46.577Z,70.30
2017-08-04T20:59:13.425Z,70.20
2017-08-04T21:01:40.296Z,70.30
2017-08-04T21:04:07.538Z,70.20
2017-08-04T21:06:34.808Z,70.20
2017-08-04T21:09:01.654Z,70.20
2017-08-04T21:11:28.536Z,70.20
2017-08-04T21:13:55.382Z,70.10
2017-08-04T21:16:22.225Z,70.20
2017-08-04T21:18:49.078Z,70.10
2017-08-04T21:21:15.921Z,70.10
2017-08-04T21:23:42.789Z,70.10
2017-08-04T21:26:10.024Z,70.10
2017-08-04T21:28:37.291Z,70.10
2017-08-04T21:31:04.131Z,70.00
2017-08-04T21:33:31.020Z,70.00
2017-08-04T21:35:57.864Z,70.00
2017-08-04T21:38:24.713Z,70.00
2017-08-04T21:40:51.945Z,70.00
2017-08-04T21:43:18.788Z,70.00
2017-08-04T21:45:45.644Z,70.00
2017-08-04T21:48:13.120Z,70.00
2017-08-04T21:50:39.988Z,69.90
2017-08-04T21:53:08.439Z,69.90
2017-08-04T21:55:35.336Z,69.90
2017-08-04T21:58:02.948Z,69.90
2017-08-04T22:00:29.827Z,69.90
2017-08-04T22:02:57.081Z,69.90
2017-08-04T22:05:23.924Z,69.80
2017-08-04T22:07:50.768Z,69.80
2017-08-04T22:10:20.006Z,69.90
2017-08-04T22:12:46.844Z,69.80
2017-08-04T22:15:13.680Z,69.80
2017-08-04T22:17:41.328Z,69.80
2017-08-04T22:20:08.180Z,69.90
2017-08-04T22:22:35.441Z,69.80
2017-08-04T22:25:02.289Z,69.90
2017-08-04T22:27:29.942Z,69.90
2017-08-04T22:29:57.549Z,69.80
2017-08-04T22:32:24.394Z,69.90
2017-08-04T22:34:51.240Z,69.90
2017-08-04T22:37:18.473Z,69.90
2017-08-04T22:39:45.705Z,69.80
2017-08-04T22:42:12.549Z,69.80
2017-08-04T22:44:39.804Z,69.80
2017-08-04T22:47:07.040Z,69.80
2017-08-04T22:49:33.909Z,69.90
2017-08-04T22:52:00.757Z,69.90
2017-08-04T22:54:27.628Z,69.70
2017-08-04T22:56:54.538Z,69.80
2017-08-04T22:59:21.380Z,69.70
2017-08-04T23:01:48.221Z,69.70
2017-08-04T23:04:15.065Z,69.80
2017-08-04T23:06:42.301Z,69.70
2017-08-04T23:09:09.148Z,69.70
2017-08-04T23:11:36.785Z,69.70
2017-08-04T23:14:03.631Z,69.70
2017-08-04T23:16:30.897Z,69.70
2017-08-04T23:18:57.758Z,69.70
2017-08-04T23:21:25.045Z,69.70
2017-08-04T23:23:51.889Z,69.60
2017-08-04T23:26:18.737Z,69.60
2017-08-04T23:28:45.572Z,69.50
2017-08-04T23:31:12.820Z,69.60
2017-08-04T23:33:39.689Z,69.60
2017-08-04T23:36:06.930Z,69.40
2017-08-04T23:38:35.032Z,69.40
2017-08-04T23:41:02.273Z,69.40
2017-08-04T23:43:29.118Z,69.40
2017-08-04T23:45:55.952Z,69.40
2017-08-04T23:48:22.797Z,69.40
2017-08-04T23:50:49.635Z,69.40
2017-08-04T23:53:16.512Z,69.30
2017-08-04T23:55:43.382Z,69.20
2017-08-04T23:58:10.229Z,69.20
